sensor_id;sensor_type;location;lat;lon;timestamp;pressure;altitude;pressure_sealevel;temperature;humidity
11085;BME280;5596;46.826;8.650;2022-08-19T00:00:30;95942.09;;;16.37;100.00
11085;BME280;5596;46.826;8.650;2022-08-19T00:02:59;95947.56;;;16.37;100.00
11085;BME280;5596;46.826;8.650;2022-08-19T00:05:26;95948.09;;;16.39;100.00
11085;BME280;5596;46.826;8.650;2022-08-19T00:07:53;95944.00;;;16.37;100.00
11085;BME280;5596;46.826;8.650;2022-08-19T00:10:20;95954.09;;;16.41;100.00
11085;BME280;5596;46.826;8.650;2022-08-19T00:12:47;95965.81;;;16.37;100.00
11085;BME280;5596;46.826;8.650;2022-08-19T00:15:17;95967.47;;;16.27;100.00
11085;BME280;5596;46.826;8.650;2022-08-19T00:17:45;95969.91;;;16.29;100.00
11085;BME280;5596;46.826;8.650;2022-08-19T00:20:15;95972.38;;;16.31;100.00
11085;BME280;5596;46.826;8.650;2022-08-19T00:22:43;95967.16;;;16.34;100.00
11085;BME280;5596;46.826;8.650;2022-08-19T00:25:11;95964.19;;;16.41;100.00
11085;BME280;5596;46.826;8.650;2022-08-19T00:27:38;95968.78;;;16.45;100.00
11085;BME280;5596;46.826;8.650;2022-08-19T00:30:07;95960.88;;;16.44;100.00
11085;BME280;5596;46.826;8.650;2022-08-19T00:32:35;95961.97;;;16.43;100.00
11085;BME280;5596;46.826;8.650;2022-08-19T00:35:03;95957.91;;;16.35;100.00
11085;BME280;5596;46.826;8.650;2022-08-19T00:37:32;95958.47;;;16.32;100.00
11085;BME280;5596;46.826;8.650;2022-08-19T00:40:01;95954.91;;;16.37;100.00
11085;BME280;5596;46.826;8.650;2022-08-19T00:42:29;95948.94;;;16.40;100.00
11085;BME280;5596;46.826;8.650;2022-08-19T00:44:56;95942.38;;;16.41;100.00
11085;BME280;5596;46.826;8.650;2022-08-19T00:47:23;95940.47;;;16.36;100.00
11085;BME280;5596;46.826;8.650;2022-08-19T00:49:53;95935.59;;;16.28;100.00
11085;BME280;5596;46.826;8.650;2022-08-19T00:52:24;95923.63;;;16.24;100.00
11085;BME280;5596;46.826;8.650;2022-08-19T00:54:56;95936.69;;;16.32;100.00
11085;BME280;5596;46.826;8.650;2022-08-19T00:57:27;95929.84;;;16.35;100.00
11085;BME280;5596;46.826;8.650;2022-08-19T00:59:57;95921.41;;;16.36;100.00
11085;BME280;5596;46.826;8.650;2022-08-19T01:02:25;95917.31;;;16.39;100.00
11085;BME280;5596;46.826;8.650;2022-08-19T01:04:53;95912.13;;;16.37;100.00
11085;BME280;5596;46.826;8.650;2022-08-19T01:07:21;95902.59;;;16.35;100.00
11085;BME280;5596;46.826;8.650;2022-08-19T01:09:48;95905.63;;;16.33;100.00
11085;BME280;5596;46.826;8.650;2022-08-19T01:12:18;95908.59;;;16.37;100.00
11085;BME280;5596;46.826;8.650;2022-08-19T01:14:45;95919.75;;;16.35;100.00
11085;BME280;5596;46.826;8.650;2022-08-19T01:17:14;95911.63;;;16.30;100.00
11085;BME280;5596;46.826;8.650;2022-08-19T01:19:43;95909.44;;;16.32;100.00
11085;BME280;5596;46.826;8.650;2022-08-19T01:22:16;95907.22;;;16.34;100.00
11085;BME280;5596;46.826;8.650;2022-08-19T01:24:48;95900.69;;;16.40;100.00
11085;BME280;5596;46.826;8.650;2022-08-19T01:27:15;95907.47;;;16.43;100.00
11085;BME280;5596;46.826;8.650;2022-08-19T01:29:44;95911.56;;;16.45;100.00
11085;BME280;5596;46.826;8.650;2022-08-19T01:32:13;95907.47;;;16.48;100.00
11085;BME280;5596;46.826;8.650;2022-08-19T01:34:41;95908.03;;;16.50;100.00
11085;BME280;5596;46.826;8.650;2022-08-19T01:37:14;95911.84;;;16.49;100.00
11085;BME280;5596;46.826;8.650;2022-08-19T01:39:42;95909.94;;;16.49;100.00
11085;BME280;5596;46.826;8.650;2022-08-19T01:42:11;95911.03;;;16.48;100.00
11085;BME280;5596;46.826;8.650;2022-08-19T01:44:39;95898.22;;;16.49;100.00
11085;BME280;5596;46.826;8.650;2022-08-19T01:47:06;95904.44;;;16.54;100.00
11085;BME280;5596;46.826;8.650;2022-08-19T01:49:35;95898.72;;;16.56;100.00
11085;BME280;5596;46.826;8.650;2022-08-19T01:52:04;95902.25;;;16.51;100.00
11085;BME280;5596;46.826;8.650;2022-08-19T01:54:32;95883.72;;;16.53;100.00
11085;BME280;5596;46.826;8.650;2022-08-19T01:57:04;95876.09;;;16.50;100.00
11085;BME280;5596;46.826;8.650;2022-08-19T01:59:34;95869.88;;;16.50;100.00
11085;BME280;5596;46.826;8.650;2022-08-19T02:02:02;95870.69;;;16.45;100.00
11085;BME280;5596;46.826;8.650;2022-08-19T02:04:33;95884.59;;;16.49;100.00
11085;BME280;5596;46.826;8.650;2022-08-19T02:07:00;95888.94;;;16.50;100.00
11085;BME280;5596;46.826;8.650;2022-08-19T02:09:27;95896.81;;;16.51;100.00
11085;BME280;5596;46.826;8.650;2022-08-19T02:11:54;95893.56;;;16.49;100.00
11085;BME280;5596;46.826;8.650;2022-08-19T02:14:21;95905.00;;;16.61;100.00
11085;BME280;5596;46.826;8.650;2022-08-19T02:16:50;95911.53;;;16.55;100.00
11085;BME280;5596;46.826;8.650;2022-08-19T02:19:17;95927.34;;;16.53;100.00
11085;BME280;5596;46.826;8.650;2022-08-19T02:21:44;95925.47;;;16.49;100.00
11085;BME280;5596;46.826;8.650;2022-08-19T02:24:11;95934.47;;;16.49;100.00
11085;BME280;5596;46.826;8.650;2022-08-19T02:26:39;95949.69;;;16.50;100.00
11085;BME280;5596;46.826;8.650;2022-08-19T02:29:07;95940.41;;;16.51;100.00
11085;BME280;5596;46.826;8.650;2022-08-19T02:31:34;95945.31;;;16.54;100.00
11085;BME280;5596;46.826;8.650;2022-08-19T02:34:03;95941.75;;;16.59;100.00
11085;BME280;5596;46.826;8.650;2022-08-19T02:36:30;95936.88;;;16.61;100.00
11085;BME280;5596;46.826;8.650;2022-08-19T02:38:57;95941.25;;;16.62;100.00
11085;BME280;5596;46.826;8.650;2022-08-19T02:41:26;95932.78;;;16.63;100.00
11085;BME280;5596;46.826;8.650;2022-08-19T02:43:54;95918.88;;;16.65;100.00
11085;BME280;5596;46.826;8.650;2022-08-19T02:46:24;95918.63;;;16.67;100.00
11085;BME280;5596;46.826;8.650;2022-08-19T02:48:54;95926.53;;;16.63;100.00
11085;BME280;5596;46.826;8.650;2022-08-19T02:51:24;95929.25;;;16.58;100.00
11085;BME280;5596;46.826;8.650;2022-08-19T02:53:52;95916.97;;;16.55;100.00
11085;BME280;5596;46.826;8.650;2022-08-19T02:56:20;95920.25;;;16.57;100.00
11085;BME280;5596;46.826;8.650;2022-08-19T02:58:47;95915.34;;;16.54;100.00
11085;BME280;5596;46.826;8.650;2022-08-19T03:01:20;95910.44;;;16.51;100.00
11085;BME280;5596;46.826;8.650;2022-08-19T03:03:47;95911.53;;;16.50;100.00
11085;BME280;5596;46.826;8.650;2022-08-19T03:06:15;95912.63;;;16.54;100.00
11085;BME280;5596;46.826;8.650;2022-08-19T03:08:45;95905.00;;;16.56;100.00
11085;BME280;5596;46.826;8.650;2022-08-19T03:11:14;95903.09;;;16.57;100.00
11085;BME280;5596;46.826;8.650;2022-08-19T03:13:42;95910.16;;;16.53;100.00
11085;BME280;5596;46.826;8.650;2022-08-19T03:16:11;95904.47;;;16.44;100.00
11085;BME280;5596;46.826;8.650;2022-08-19T03:18:38;95902.84;;;16.48;100.00
11085;BME280;5596;46.826;8.650;2022-08-19T03:21:06;95894.66;;;16.48;100.00
11085;BME280;5596;46.826;8.650;2022-08-19T03:23:34;95895.19;;;16.50;100.00
11085;BME280;5596;46.826;8.650;2022-08-19T03:26:05;95899.84;;;16.50;100.00
11085;BME280;5596;46.826;8.650;2022-08-19T03:28:33;95889.50;;;16.42;100.00
11085;BME280;5596;46.826;8.650;2022-08-19T03:31:03;95886.53;;;16.38;100.00
11085;BME280;5596;46.826;8.650;2022-08-19T03:33:30;95889.53;;;16.37;100.00
11085;BME280;5596;46.826;8.650;2022-08-19T03:36:06;95880.53;;;16.36;100.00
11085;BME280;5596;46.826;8.650;2022-08-19T03:38:34;95888.72;;;16.36;100.00
11085;BME280;5596;46.826;8.650;2022-08-19T03:41:05;95877.25;;;16.39;100.00
11085;BME280;5596;46.826;8.650;2022-08-19T03:43:34;95874.78;;;16.43;100.00
11085;BME280;5596;46.826;8.650;2022-08-19T03:46:03;95882.38;;;16.51;100.00
11085;BME280;5596;46.826;8.650;2022-08-19T03:48:31;95870.66;;;16.50;100.00
11085;BME280;5596;46.826;8.650;2022-08-19T03:50:59;95884.28;;;16.50;100.00
11085;BME280;5596;46.826;8.650;2022-08-19T03:53:26;95885.91;;;16.51;100.00
11085;BME280;5596;46.826;8.650;2022-08-19T03:55:54;95884.84;;;16.47;100.00
11085;BME280;5596;46.826;8.650;2022-08-19T03:58:23;95895.75;;;16.47;100.00
11085;BME280;5596;46.826;8.650;2022-08-19T04:00:50;95899.31;;;16.48;100.00
11085;BME280;5596;46.826;8.650;2022-08-19T04:03:17;95902.25;;;16.51;100.00
11085;BME280;5596;46.826;8.650;2022-08-19T04:05:46;95904.47;;;16.49;100.00
11085;BME280;5596;46.826;8.650;2022-08-19T04:08:13;95903.69;;;16.39;100.00
11085;BME280;5596;46.826;8.650;2022-08-19T04:10:40;95902.31;;;16.41;100.00
11085;BME280;5596;46.826;8.650;2022-08-19T04:13:08;95896.88;;;16.41;100.00
11085;BME280;5596;46.826;8.650;2022-08-19T04:15:40;95897.66;;;16.42;100.00
11085;BME280;5596;46.826;8.650;2022-08-19T04:18:08;95896.03;;;16.46;100.00
11085;BME280;5596;46.826;8.650;2022-08-19T04:20:40;95900.13;;;16.48;100.00
11085;BME280;5596;46.826;8.650;2022-08-19T04:23:07;95897.41;;;16.48;100.00
11085;BME280;5596;46.826;8.650;2022-08-19T04:25:37;95900.63;;;16.50;100.00
11085;BME280;5596;46.826;8.650;2022-08-19T04:28:05;95908.25;;;16.53;100.00
11085;BME280;5596;46.826;8.650;2022-08-19T04:30:39;95899.56;;;16.46;100.00
11085;BME280;5596;46.826;8.650;2022-08-19T04:33:07;95907.75;;;16.46;100.00
11085;BME280;5596;46.826;8.650;2022-08-19T04:35:37;95915.38;;;16.49;100.00
11085;BME280;5596;46.826;8.650;2022-08-19T04:38:05;95912.09;;;16.52;100.00
11085;BME280;5596;46.826;8.650;2022-08-19T04:40:32;95923.53;;;16.54;100.00
11085;BME280;5596;46.826;8.650;2022-08-19T04:43:17;95914.81;;;16.52;100.00
11085;BME280;5596;46.826;8.650;2022-08-19T04:45:46;95928.44;;;16.52;100.00
11085;BME280;5596;46.826;8.650;2022-08-19T04:48:13;95925.16;;;16.50;100.00
11085;BME280;5596;46.826;8.650;2022-08-19T04:50:43;95934.97;;;16.51;100.00
11085;BME280;5596;46.826;8.650;2022-08-19T04:53:10;95944.50;;;16.54;100.00
11085;BME280;5596;46.826;8.650;2022-08-19T04:55:41;95951.06;;;16.53;100.00
11085;BME280;5596;46.826;8.650;2022-08-19T04:58:08;95953.50;;;16.54;100.00
11085;BME280;5596;46.826;8.650;2022-08-19T05:00:37;95960.59;;;16.55;100.00
11085;BME280;5596;46.826;8.650;2022-08-19T05:03:07;95960.59;;;16.55;100.00
11085;BME280;5596;46.826;8.650;2022-08-19T05:05:38;95963.56;;;16.59;100.00
11085;BME280;5596;46.826;8.650;2022-08-19T05:08:05;95970.41;;;16.56;100.00
11085;BME280;5596;46.826;8.650;2022-08-19T05:10:35;95965.50;;;16.53;100.00
11085;BME280;5596;46.826;8.650;2022-08-19T05:13:03;95967.41;;;16.53;100.00
11085;BME280;5596;46.826;8.650;2022-08-19T05:15:30;95970.94;;;16.53;100.00
11085;BME280;5596;46.826;8.650;2022-08-19T05:17:57;95967.41;;;16.53;100.00
11085;BME280;5596;46.826;8.650;2022-08-19T05:20:43;95974.22;;;16.55;100.00
11085;BME280;5596;46.826;8.650;2022-08-19T05:23:28;95970.41;;;16.56;100.00
11085;BME280;5596;46.826;8.650;2022-08-19T05:25:55;95978.31;;;16.53;100.00
11085;BME280;5596;46.826;8.650;2022-08-19T05:28:22;95969.31;;;16.52;100.00
11085;BME280;5596;46.826;8.650;2022-08-19T05:30:49;95973.16;;;16.46;100.00
11085;BME280;5596;46.826;8.650;2022-08-19T05:33:16;95977.50;;;16.42;100.00
11085;BME280;5596;46.826;8.650;2022-08-19T05:35:45;95979.13;;;16.43;100.00
11085;BME280;5596;46.826;8.650;2022-08-19T05:38:13;95980.50;;;16.46;100.00
11085;BME280;5596;46.826;8.650;2022-08-19T05:40:41;95979.69;;;16.45;100.00
11085;BME280;5596;46.826;8.650;2022-08-19T05:43:11;95991.69;;;16.49;100.00
11085;BME280;5596;46.826;8.650;2022-08-19T05:45:42;95988.38;;;16.52;100.00
11085;BME280;5596;46.826;8.650;2022-08-19T05:48:09;95985.66;;;16.52;100.00
11085;BME280;5596;46.826;8.650;2022-08-19T05:50:37;95981.59;;;16.45;100.00
11085;BME280;5596;46.826;8.650;2022-08-19T05:53:06;95988.41;;;16.47;100.00
11085;BME280;5596;46.826;8.650;2022-08-19T05:55:35;95979.69;;;16.45;100.00
11085;BME280;5596;46.826;8.650;2022-08-19T05:58:03;95991.41;;;16.46;100.00
11085;BME280;5596;46.826;8.650;2022-08-19T06:00:33;95984.88;;;16.42;100.00
11085;BME280;5596;46.826;8.650;2022-08-19T06:03:00;95986.81;;;16.41;100.00
11085;BME280;5596;46.826;8.650;2022-08-19T06:05:29;95984.06;;;16.46;100.00
11085;BME280;5596;46.826;8.650;2022-08-19T06:07:56;95997.13;;;16.49;100.00
11085;BME280;5596;46.826;8.650;2022-08-19T06:10:27;95987.84;;;16.55;100.00
11085;BME280;5596;46.826;8.650;2022-08-19T06:12:54;95981.84;;;16.53;100.00
11085;BME280;5596;46.826;8.650;2022-08-19T06:15:21;95988.94;;;16.54;100.00
11085;BME280;5596;46.826;8.650;2022-08-19T06:17:51;95992.47;;;16.55;100.00
11085;BME280;5596;46.826;8.650;2022-08-19T06:20:18;95993.84;;;16.57;100.00
11085;BME280;5596;46.826;8.650;2022-08-19T06:22:46;95991.13;;;16.57;100.00
11085;BME280;5596;46.826;8.650;2022-08-19T06:25:15;96005.28;;;16.54;100.00
11085;BME280;5596;46.826;8.650;2022-08-19T06:27:44;95991.94;;;16.53;100.00
11085;BME280;5596;46.826;8.650;2022-08-19T06:30:12;95999.00;;;16.59;100.00
11085;BME280;5596;46.826;8.650;2022-08-19T06:32:39;96007.16;;;16.59;100.00
11085;BME280;5596;46.826;8.650;2022-08-19T06:35:07;96004.75;;;16.57;100.00
11085;BME280;5596;46.826;8.650;2022-08-19T06:37:35;96010.19;;;16.57;100.00
11085;BME280;5596;46.826;8.650;2022-08-19T06:40:04;96011.84;;;16.63;100.00
11085;BME280;5596;46.826;8.650;2022-08-19T06:42:31;96018.91;;;16.70;100.00
11085;BME280;5596;46.826;8.650;2022-08-19T06:45:03;96016.72;;;16.72;100.00
11085;BME280;5596;46.826;8.650;2022-08-19T06:47:31;96018.38;;;16.62;100.00
11085;BME280;5596;46.826;8.650;2022-08-19T06:49:59;96020.31;;;16.67;100.00
11085;BME280;5596;46.826;8.650;2022-08-19T06:52:28;96031.47;;;16.66;100.00
11085;BME280;5596;46.826;8.650;2022-08-19T06:54:55;96040.16;;;16.68;100.00
11085;BME280;5596;46.826;8.650;2022-08-19T06:57:23;96034.72;;;16.68;100.00
11085;BME280;5596;46.826;8.650;2022-08-19T06:59:51;96038.53;;;16.72;100.00
11085;BME280;5596;46.826;8.650;2022-08-19T07:02:20;96039.63;;;16.71;100.00
11085;BME280;5596;46.826;8.650;2022-08-19T07:04:52;96041.81;;;16.74;100.00
11085;BME280;5596;46.826;8.650;2022-08-19T07:07:20;96041.81;;;16.74;100.00
11085;BME280;5596;46.826;8.650;2022-08-19T07:09:50;96046.16;;;16.70;100.00
11085;BME280;5596;46.826;8.650;2022-08-19T07:12:18;96052.44;;;16.70;100.00
11085;BME280;5596;46.826;8.650;2022-08-19T07:14:46;96052.16;;;16.72;100.00
11085;BME280;5596;46.826;8.650;2022-08-19T07:17:15;96060.63;;;16.75;100.00
11085;BME280;5596;46.826;8.650;2022-08-19T07:19:43;96065.25;;;16.75;100.00
11085;BME280;5596;46.826;8.650;2022-08-19T07:22:10;96057.63;;;16.72;100.00
11085;BME280;5596;46.826;8.650;2022-08-19T07:24:38;96055.97;;;16.71;100.00
11085;BME280;5596;46.826;8.650;2022-08-19T07:27:06;96059.25;;;16.73;100.00
11085;BME280;5596;46.826;8.650;2022-08-19T07:29:36;96065.25;;;16.75;100.00
11085;BME280;5596;46.826;8.650;2022-08-19T07:32:04;96070.72;;;16.75;100.00
11085;BME280;5596;46.826;8.650;2022-08-19T07:34:32;96061.72;;;16.69;100.00
11085;BME280;5596;46.826;8.650;2022-08-19T07:37:03;96073.16;;;16.71;100.00
11085;BME280;5596;46.826;8.650;2022-08-19T07:39:33;96073.72;;;16.73;100.00
11085;BME280;5596;46.826;8.650;2022-08-19T07:42:05;96076.97;;;16.70;100.00
11085;BME280;5596;46.826;8.650;2022-08-19T07:44:33;96074.00;;;16.67;100.00
11085;BME280;5596;46.826;8.650;2022-08-19T07:47:01;96081.88;;;16.73;100.00
11085;BME280;5596;46.826;8.650;2022-08-19T07:49:29;96073.97;;;16.72;100.00
11085;BME280;5596;46.826;8.650;2022-08-19T07:51:58;96084.63;;;16.73;100.00
11085;BME280;5596;46.826;8.650;2022-08-19T07:54:30;96087.06;;;16.75;100.00
11085;BME280;5596;46.826;8.650;2022-08-19T07:56:58;96086.78;;;16.71;100.00
11085;BME280;5596;46.826;8.650;2022-08-19T07:59:25;96082.44;;;16.65;100.00
11085;BME280;5596;46.826;8.650;2022-08-19T08:01:54;96096.63;;;16.67;100.00
11085;BME280;5596;46.826;8.650;2022-08-19T08:04:21;96105.31;;;16.69;100.00
11085;BME280;5596;46.826;8.650;2022-08-19T08:07:12;96121.69;;;16.69;100.00
11085;BME280;5596;46.826;8.650;2022-08-19T08:09:58;96121.44;;;16.66;100.00
11085;BME280;5596;46.826;8.650;2022-08-19T08:12:27;96130.44;;;16.66;100.00
11085;BME280;5596;46.826;8.650;2022-08-19T08:14:57;96121.16;;;16.62;100.00
11085;BME280;5596;46.826;8.650;2022-08-19T08:17:28;96125.81;;;16.67;100.00
11085;BME280;5596;46.826;8.650;2022-08-19T08:19:55;96126.31;;;16.58;100.00
11085;BME280;5596;46.826;8.650;2022-08-19T08:22:24;96145.38;;;16.53;100.00
11085;BME280;5596;46.826;8.650;2022-08-19T08:25:09;96138.28;;;16.52;100.00
11085;BME280;5596;46.826;8.650;2022-08-19T08:27:37;96135.59;;;16.57;100.00
11085;BME280;5596;46.826;8.650;2022-08-19T08:30:07;96145.91;;;16.60;100.00
11085;BME280;5596;46.826;8.650;2022-08-19T08:32:36;96149.72;;;16.59;100.00
11085;BME280;5596;46.826;8.650;2022-08-19T08:35:04;96155.75;;;16.61;100.00
11085;BME280;5596;46.826;8.650;2022-08-19T08:37:31;96162.59;;;16.64;100.00
11085;BME280;5596;46.826;8.650;2022-08-19T08:39:58;96150.88;;;16.63;100.00
11085;BME280;5596;46.826;8.650;2022-08-19T08:42:31;96152.22;;;16.61;100.00
11085;BME280;5596;46.826;8.650;2022-08-19T08:45:05;96173.75;;;16.62;100.00
11085;BME280;5596;46.826;8.650;2022-08-19T08:47:37;96175.38;;;16.58;100.00
11085;BME280;5596;46.826;8.650;2022-08-19T08:50:10;96180.00;;;16.58;100.00
11085;BME280;5596;46.826;8.650;2022-08-19T08:52:45;96179.19;;;16.57;100.00
11085;BME280;5596;46.826;8.650;2022-08-19T08:55:15;96183.81;;;16.57;100.00
11085;BME280;5596;46.826;8.650;2022-08-19T08:57:53;96183.53;;;16.48;100.00
11085;BME280;5596;46.826;8.650;2022-08-19T09:00:25;96194.44;;;16.53;100.00
11085;BME280;5596;46.826;8.650;2022-08-19T09:02:53;96194.72;;;16.57;100.00
11085;BME280;5596;46.826;8.650;2022-08-19T09:05:21;96199.34;;;16.56;100.00
11085;BME280;5596;46.826;8.650;2022-08-19T09:07:58;96193.34;;;16.54;100.00
11085;BME280;5596;46.826;8.650;2022-08-19T09:10:31;96200.97;;;16.52;100.00
11085;BME280;5596;46.826;8.650;2022-08-19T09:13:10;96206.44;;;16.47;100.00
11085;BME280;5596;46.826;8.650;2022-08-19T09:15:46;96199.63;;;16.40;100.00
11085;BME280;5596;46.826;8.650;2022-08-19T09:18:15;96201.25;;;16.41;100.00
11085;BME280;5596;46.826;8.650;2022-08-19T09:20:42;96200.97;;;16.32;100.00
11085;BME280;5596;46.826;8.650;2022-08-19T09:23:10;96203.69;;;16.32;100.00
11085;BME280;5596;46.826;8.650;2022-08-19T09:25:37;96197.69;;;16.30;100.00
11085;BME280;5596;46.826;8.650;2022-08-19T09:28:07;96200.41;;;16.30;100.00
11085;BME280;5596;46.826;8.650;2022-08-19T09:30:39;96202.06;;;16.36;100.00
11085;BME280;5596;46.826;8.650;2022-08-19T09:33:07;96205.59;;;16.37;100.00
11085;BME280;5596;46.826;8.650;2022-08-19T09:35:35;96206.97;;;16.39;100.00
11085;BME280;5596;46.826;8.650;2022-08-19T09:38:02;96216.50;;;16.42;100.00
11085;BME280;5596;46.826;8.650;2022-08-19T09:40:30;96212.97;;;16.41;100.00
11085;BME280;5596;46.826;8.650;2022-08-19T09:42:57;96211.34;;;16.40;100.00
11085;BME280;5596;46.826;8.650;2022-08-19T09:45:27;96211.59;;;16.44;100.00
11085;BME280;5596;46.826;8.650;2022-08-19T09:47:54;96211.88;;;16.42;100.00
11085;BME280;5596;46.826;8.650;2022-08-19T09:50:23;96205.06;;;16.40;100.00
11085;BME280;5596;46.826;8.650;2022-08-19T09:52:51;96214.31;;;16.44;100.00
11085;BME280;5596;46.826;8.650;2022-08-19T09:55:19;96221.16;;;16.46;100.00
11085;BME280;5596;46.826;8.650;2022-08-19T09:57:46;96214.59;;;16.42;100.00
11085;BME280;5596;46.826;8.650;2022-08-19T10:00:13;96222.75;;;16.42;100.00
11085;BME280;5596;46.826;8.650;2022-08-19T10:02:42;96229.06;;;16.48;100.00
11085;BME280;5596;46.826;8.650;2022-08-19T10:05:09;96228.78;;;16.49;100.00
11085;BME280;5596;46.826;8.650;2022-08-19T10:07:54;96233.16;;;16.55;100.00
11085;BME280;5596;46.826;8.650;2022-08-19T10:10:21;96230.69;;;16.59;100.00
11085;BME280;5596;46.826;8.650;2022-08-19T10:12:48;96237.78;;;16.60;100.00
11085;BME280;5596;46.826;8.650;2022-08-19T10:15:15;96232.09;;;16.61;100.00
11085;BME280;5596;46.826;8.650;2022-08-19T10:17:48;96223.63;;;16.58;100.00
11085;BME280;5596;46.826;8.650;2022-08-19T10:20:15;96238.38;;;16.62;100.00
11085;BME280;5596;46.826;8.650;2022-08-19T10:22:42;96248.97;;;16.58;100.00
11085;BME280;5596;46.826;8.650;2022-08-19T10:25:10;96241.06;;;16.57;100.00
11085;BME280;5596;46.826;8.650;2022-08-19T10:27:42;96239.69;;;16.54;100.00
11085;BME280;5596;46.826;8.650;2022-08-19T10:30:10;96249.78;;;16.54;100.00
11085;BME280;5596;46.826;8.650;2022-08-19T10:32:38;96250.59;;;16.54;100.00
11085;BME280;5596;46.826;8.650;2022-08-19T10:35:07;96259.31;;;16.56;100.00
11085;BME280;5596;46.826;8.650;2022-08-19T10:37:34;96257.69;;;16.55;100.00
11085;BME280;5596;46.826;8.650;2022-08-19T10:40:04;96259.31;;;16.56;100.00
11085;BME280;5596;46.826;8.650;2022-08-19T10:42:32;96265.03;;;16.55;100.00
11085;BME280;5596;46.826;8.650;2022-08-19T10:45:00;96256.06;;;16.49;100.00
11085;BME280;5596;46.826;8.650;2022-08-19T10:47:27;96264.19;;;16.39;100.00
11085;BME280;5596;46.826;8.650;2022-08-19T10:49:55;96259.28;;;16.36;100.00
11085;BME280;5596;46.826;8.650;2022-08-19T10:52:43;96270.72;;;16.38;100.00
11085;BME280;5596;46.826;8.650;2022-08-19T10:55:11;96276.72;;;16.35;100.00
11085;BME280;5596;46.826;8.650;2022-08-19T10:57:55;96264.97;;;16.30;100.00
11085;BME280;5596;46.826;8.650;2022-08-19T11:00:23;96265.53;;;16.32;100.00
11085;BME280;5596;46.826;8.650;2022-08-19T11:02:51;96266.38;;;16.32;100.00
11085;BME280;5596;46.826;8.650;2022-08-19T11:05:18;96263.91;;;16.31;100.00
11085;BME280;5596;46.826;8.650;2022-08-19T11:07:49;96256.28;;;16.33;100.00
11085;BME280;5596;46.826;8.650;2022-08-19T11:10:17;96261.22;;;16.41;100.00
11085;BME280;5596;46.826;8.650;2022-08-19T11:12:44;96252.22;;;16.45;100.00
11085;BME280;5596;46.826;8.650;2022-08-19T11:15:14;96247.59;;;16.56;100.00
11085;BME280;5596;46.826;8.650;2022-08-19T11:17:41;96247.34;;;16.68;100.00
11085;BME280;5596;46.826;8.650;2022-08-19T11:20:10;96237.03;;;16.75;100.00
11085;BME280;5596;46.826;8.650;2022-08-19T11:22:38;96248.47;;;16.77;100.00
11085;BME280;5596;46.826;8.650;2022-08-19T11:25:07;96245.22;;;16.75;100.00
11085;BME280;5596;46.826;8.650;2022-08-19T11:27:37;96240.84;;;16.79;100.00
11085;BME280;5596;46.826;8.650;2022-08-19T11:30:06;96244.94;;;16.81;100.00
11085;BME280;5596;46.826;8.650;2022-08-19T11:32:33;96249.56;;;16.86;100.00
11085;BME280;5596;46.826;8.650;2022-08-19T11:35:00;96251.22;;;16.82;100.00
11085;BME280;5596;46.826;8.650;2022-08-19T11:37:27;96252.56;;;16.84;100.00
11085;BME280;5596;46.826;8.650;2022-08-19T11:39:54;96254.22;;;16.75;100.00
11085;BME280;5596;46.826;8.650;2022-08-19T11:42:23;96256.09;;;16.70;100.00
11085;BME280;5596;46.826;8.650;2022-08-19T11:45:08;96258.00;;;16.69;100.00
11085;BME280;5596;46.826;8.650;2022-08-19T11:47:36;96252.00;;;16.77;100.00
11085;BME280;5596;46.826;8.650;2022-08-19T11:50:05;96262.09;;;16.77;100.00
11085;BME280;5596;46.826;8.650;2022-08-19T11:52:32;96256.09;;;16.80;100.00
11085;BME280;5596;46.826;8.650;2022-08-19T11:54:59;96257.47;;;16.77;100.00
11085;BME280;5596;46.826;8.650;2022-08-19T11:57:27;96263.22;;;16.76;100.00
11085;BME280;5596;46.826;8.650;2022-08-19T11:59:55;96261.81;;;16.78;100.00
11085;BME280;5596;46.826;8.650;2022-08-19T12:02:22;96267.28;;;16.88;100.00
11085;BME280;5596;46.826;8.650;2022-08-19T12:04:49;96266.47;;;16.93;100.00
11085;BME280;5596;46.826;8.650;2022-08-19T12:07:16;96273.59;;;16.99;100.00
11085;BME280;5596;46.826;8.650;2022-08-19T12:09:43;96275.75;;;17.07;100.00
11085;BME280;5596;46.826;8.650;2022-08-19T12:12:11;96266.50;;;17.08;100.00
11085;BME280;5596;46.826;8.650;2022-08-19T12:14:39;96269.47;;;17.12;100.00
11085;BME280;5596;46.826;8.650;2022-08-19T12:17:06;96265.09;;;17.21;100.00
11085;BME280;5596;46.826;8.650;2022-08-19T12:19:36;96271.66;;;17.25;100.00
11085;BME280;5596;46.826;8.650;2022-08-19T12:22:03;96262.09;;;17.22;100.00
11085;BME280;5596;46.826;8.650;2022-08-19T12:24:31;96265.38;;;17.24;100.00
11085;BME280;5596;46.826;8.650;2022-08-19T12:26:59;96268.38;;;17.13;100.00
11085;BME280;5596;46.826;8.650;2022-08-19T12:29:28;96268.09;;;17.19;100.00
11085;BME280;5596;46.826;8.650;2022-08-19T12:31:58;96266.75;;;17.22;100.00
11085;BME280;5596;46.826;8.650;2022-08-19T12:34:27;96264.56;;;17.24;100.00
11085;BME280;5596;46.826;8.650;2022-08-19T12:36:55;96269.75;;;17.30;100.00
11085;BME280;5596;46.826;8.650;2022-08-19T12:39:22;96258.53;;;17.27;100.00
11085;BME280;5596;46.826;8.650;2022-08-19T12:41:50;96274.91;;;17.27;100.00
11085;BME280;5596;46.826;8.650;2022-08-19T12:44:19;96270.84;;;17.24;100.00
11085;BME280;5596;46.826;8.650;2022-08-19T12:46:47;96272.72;;;17.29;100.00
11085;BME280;5596;46.826;8.650;2022-08-19T12:49:15;96274.66;;;17.23;100.00
11085;BME280;5596;46.826;8.650;2022-08-19T12:51:43;96262.66;;;17.14;100.00
11085;BME280;5596;46.826;8.650;2022-08-19T12:54:09;96272.47;;;17.10;100.00
11085;BME280;5596;46.826;8.650;2022-08-19T12:56:37;96271.94;;;17.03;100.00
11085;BME280;5596;46.826;8.650;2022-08-19T12:59:04;96273.03;;;16.97;100.00
11085;BME280;5596;46.826;8.650;2022-08-19T13:01:33;96273.03;;;16.97;100.00
11085;BME280;5596;46.826;8.650;2022-08-19T13:04:00;96271.13;;;16.92;100.00
11085;BME280;5596;46.826;8.650;2022-08-19T13:06:28;96272.47;;;16.85;100.00
11085;BME280;5596;46.826;8.650;2022-08-19T13:08:55;96266.47;;;16.83;100.00